• Join FlightAware (Why Join?)
  • Login
  • US Flag GB Flag 
22:19 EDT


 

Airport Tracker/Info


-or-


 

Live Flight TrackerFlight Track Log ✈ SWA268 ✈ 14-Apr-2013 ✈ KTPA - KBUF

Flight Track Log - Related Links

Times and Time Zones

All times are in EDT time to prevent confusion due to time zone crossing. See the SWA268 flight status page for this flight to view local times or setup timezone preferences in your user account.

Time Position Orientation Groundspeed Altitude Reporting Facility
EDT Latitude Longitude Course Direction KTS MPH feet Rate Location/Type
19:12 27.9667 -82.5500 180° South 160 184 1,100  Level Tampa TRACON
19:13 27.9500 -82.5500 180° South 154 177 1,900 2,520 Climbing Tampa TRACON
19:14 27.8833 -82.5833 204° Southwest 217 250 5,200 2,820 Climbing Tampa TRACON
19:15 27.9333 -82.6167 330° Northwest 277 319 7,900 2,880 Climbing Tampa TRACON
19:17 28.0828 -82.6056 North 342 394 12,700 3,240 Climbing Jacksonville Center
19:18 28.1767 -82.5958 North 342 394 16,300 3,240 Climbing Jacksonville Center
19:19 28.2706 -82.5908 North 347 399 19,200 2,040 Climbing Jacksonville Center
19:20 28.3792 -82.5836 North 359 413 20,400 2,100 Climbing Jacksonville Center
19:21 28.4897 -82.5856 359° North 381 438 23,400 2,760 Climbing Jacksonville Center
19:22 28.5983 -82.5875 359° North 387 445 26,000 1,260 Climbing Jacksonville Center
19:23 28.7108 -82.5919 358° North 392 451 26,000  Level Jacksonville Center
19:24 28.8342 -82.6128 352° North 415 478 26,100 720 Climbing Jacksonville Center
19:25 28.9572 -82.6292 353° North 435 501 27,500 1,380 Climbing Jacksonville Center
19:26 29.0889 -82.6478 353° North 455 524 28,900 1,380 Climbing Jacksonville Center
19:27 29.2183 -82.6667 353° North 466 536 30,300 1,500 Climbing Jacksonville Center
19:28 29.3497 -82.6831 354° North 472 543 31,900 900 Climbing Jacksonville Center
19:29 29.4875 -82.6969 355° North 488 562 32,100 780 Climbing Jacksonville Center
19:30 29.6233 -82.6942 North 476 548 33,500 1,440 Climbing Jacksonville Center
19:31 29.7569 -82.6917 North 476 548 35,000 1,260 Climbing Jacksonville Center
19:32 29.8781 -82.6914 360° North 481 554 36,100 1,320 Climbing Jacksonville Center
19:33 30.0117 -82.6911 360° North 476 548 37,700 1,440 Climbing Jacksonville Center
19:34 30.1389 -82.6861 North 471 542 39,000 600 Climbing Jacksonville Center
19:35 30.2664 -82.6858 360° North 466 536 39,000  Level Jacksonville Center
19:36 30.3936 -82.6856 360° North 455 524 39,000  Level Jacksonville Center
19:37 30.5253 -82.6803 North 455 524 39,000 -60 Level Jacksonville Center
19:38 30.6567 -82.6631 North 460 529 38,900  Descending Jacksonville Center
19:39 30.7861 -82.6483 North 460 529 39,000  Climbing Jacksonville Center
19:40 30.9219 -82.6333 North 466 536 39,000  Level Jacksonville Center
19:41 31.0556 -82.6211 North 472 543 39,000  Level Jacksonville Center
19:42 31.1911 -82.6061 North 478 550 39,000  Level Jacksonville Center
19:43 31.3228 -82.5911 North 478 550 39,000  Level Jacksonville Center
19:44 31.4708 -82.5711 North 483 556 39,000  Level Jacksonville Center
19:45 31.6044 -82.5558 North 483 556 39,000  Level Jacksonville Center
19:46 31.7381 -82.5408 North 483 556 39,000  Level Jacksonville Center
19:47 31.9064 -82.5269 North 494 568 39,000  Level Atlanta Center
19:48 32.0397 -82.5100 North 494 568 39,000  Level Atlanta Center
19:49 32.1772 -82.4953 North 494 568 39,000  Level Atlanta Center
19:50 32.3150 -82.4831 North 499 574 39,000  Level Atlanta Center
19:51 32.4503 -82.4636 North 499 574 39,000  Level Atlanta Center
19:52 32.5881 -82.4561 North 494 568 39,000  Level Atlanta Center
19:53 32.7275 -82.4364 North 499 574 39,000  Level Atlanta Center
19:54 32.8653 -82.4214 North 499 574 39,000  Level Atlanta Center
19:55 33.0006 -82.4089 North 499 574 39,000  Level Atlanta Center
19:56 33.1383 -82.3917 North 494 568 39,000  Level Atlanta Center
19:57 33.2778 -82.3739 North 494 568 39,000  Level Atlanta Center
19:58 33.4133 -82.3639 North 494 568 39,000  Level Atlanta Center
19:59 33.5508 -82.3464 North 500 575 39,000  Level Atlanta Center
20:00 33.7031 -82.3283 North 490 564 39,000  Level Atlanta Center
20:01 33.8428 -82.3131 North 502 578 39,000  Level Atlanta Center
20:02 33.9803 -82.2978 North 489 563 39,000  Level Atlanta Center
20:03 34.1175 -82.2775 North 500 575 39,000  Level Atlanta Center
20:04 34.2486 -82.2419 13° North 508 585 39,000  Level Atlanta Center
20:05 34.3858 -82.1989 15° North 508 585 39,000  Level Atlanta Center
20:06 34.5228 -82.1531 15° North 508 585 39,000  Level Atlanta Center
20:07 34.6619 -82.1094 14° North 508 585 39,000  Level Atlanta Center
20:08 34.7989 -82.0633 15° North 508 585 39,000  Level Atlanta Center
20:09 34.9339 -82.0244 13° North 508 585 39,000  Level Atlanta Center
20:10 35.0708 -81.9781 15° North 503 579 39,000  Level Atlanta Center
20:11 35.2078 -81.9367 14° North 510 587 39,000  Level Atlanta Center
20:12 35.3550 -81.8844 16° North 505 581 39,000  Level Atlanta Center
20:13 35.4942 -81.8400 15° North 511 588 39,000  Level Atlanta Center
20:14 35.6311 -81.7953 15° North 511 588 39,000  Level Atlanta Center
20:15 35.7678 -81.7481 16° North 511 588 39,000  Level Atlanta Center
20:16 35.9089 -81.7006 15° North 511 588 39,000  Level Atlanta Center
20:17 36.0456 -81.6556 15° North 511 588 39,000  Level Atlanta Center
20:18 36.1700 -81.6133 15° North 511 588 39,000  Level Atlanta Center
20:19 36.3067 -81.5681 15° North 506 582 39,000  Level Atlanta Center
20:20 36.4453 -81.5197 16° North 506 582 39,000  Level Atlanta Center
20:21 36.5842 -81.4689 16° North 515 593 39,000  Level Atlanta Center
20:23 36.9103 -81.3603 15° North 523 602 39,000  Level Indianapolis Center
20:24 37.0578 -81.3069 16° North 513 590 39,000  Level Indianapolis Center
20:25 37.1978 -81.2589 15° North 518 596 39,000  Level Indianapolis Center
20:26 37.3406 -81.2089 16° North 512 589 39,000  Level Indianapolis Center
20:27 37.4772 -81.1622 15° North 517 595 39,000  Level Indianapolis Center
20:28 37.6122 -81.1147 16° North 515 593 39,000  Level Indianapolis Center
20:29 37.7481 -81.0675 15° North 517 595 39,000  Level Indianapolis Center
20:30 37.8978 -81.0144 16° North 516 594 39,000  Level Indianapolis Center
20:31 38.0378 -80.9650 16° North 521 600 39,000  Level Indianapolis Center
20:32 38.1761 -80.9153 16° North 522 601 39,000  Level Indianapolis Center
20:34 38.3142 -80.8647 16° North 519 597 39,000  Level Indianapolis Center
20:35 38.4789 -80.8061 16° North 517 595 39,000  Level Indianapolis Center
20:36 38.6172 -80.7561 16° North 518 596 39,000  Level Indianapolis Center
20:37 38.7539 -80.7056 16° North 515 593 39,000  Level Indianapolis Center
20:38 38.8931 -80.6544 16° North 520 598 39,000  Level Indianapolis Center
20:39 39.0317 -80.6042 16° North 520 598 39,000  Level Indianapolis Center
20:40 39.1714 -80.5533 16° North 522 601 39,000  Level Indianapolis Center
20:41 39.3114 -80.5019 16° North 525 604 39,000  Level Indianapolis Center
20:41 39.4375 -80.4567 15° North 513 590 39,000  Level Cleveland Center
20:42 39.5792 -80.4053 16° North 513 590 39,000  Level Cleveland Center
20:43 39.7189 -80.3536 16° North 513 590 39,000  Level Cleveland Center
20:44 39.8606 -80.3019 16° North 513 590 39,000  Level Cleveland Center
20:45 40.0000 -80.2497 16° North 513 590 39,000 -480 Level Cleveland Center
20:46 40.1353 -80.1975 16° North 513 590 38,100 -960 Descending Cleveland Center
20:47 40.2747 -80.1478 15° North 513 590 37,100 -1,740 Descending Cleveland Center
20:48 40.4100 -80.0950 17° North 513 590 34,700 -2,820 Descending Cleveland Center
20:49 40.5433 -80.0447 16° North 503 579 31,500 -1,860 Descending Cleveland Center
20:50 40.6764 -79.9917 17° North 497 572 31,000 -600 Descending Cleveland Center
20:51 40.8075 -79.9411 16° North 497 572 30,300 -840 Descending Cleveland Center
20:52 40.9406 -79.8878 17° North 497 572 29,400 -960 Descending Cleveland Center
20:53 41.0736 -79.8367 16° North 497 572 28,400 -1,500 Descending Cleveland Center
20:54 41.2025 -79.7883 16° North 491 565 26,500 -1,500 Descending Cleveland Center
20:55 41.3336 -79.7369 16° North 491 565 25,400 -1,200 Descending Cleveland Center
20:56 41.4561 -79.6883 17° North 477 549 24,200 -720 Descending Cleveland Center
20:57 41.5725 -79.6422 17° North 449 517 24,000 -120 Descending Cleveland Center
20:58 41.6869 -79.5961 17° North 431 496 24,000  Level Cleveland Center
20:59 41.8053 -79.5497 16° North 431 496 24,000 -300 Level Cleveland Center
21:00 41.9194 -79.5033 17° North 431 496 23,500 -1,440 Descending Cleveland Center
21:01 42.0336 -79.4622 15° North 431 496 21,200 -2,400 Descending Cleveland Center
21:02 42.1417 -79.4156 18° North 419 482 18,800 -2,340 Descending Cleveland Center
21:03 42.2456 -79.3742 16° North 399 459 16,600 -2,340 Descending Cleveland Center
21:04 42.3450 -79.3331 17° North 385 443 14,200 -2,280 Descending Cleveland Center
21:05 42.4425 -79.2917 17° North 370 426 12,100 -1,620 Descending Cleveland Center
21:06 42.5483 -79.2503 16° North 363 418 11,000 -1,080 Descending Cleveland Center
21:07 42.6397 -79.2114 17° North 350 403 10,000 -780 Descending Cleveland Center
21:08 42.7183 -79.1644 24° Northeast 317 365 9,500 -1,080 Descending Cleveland Center
21:09 42.7756 -79.0842 46° Northeast 284 327 7,900 -1,260 Descending Cleveland Center
21:10 42.8414 -79.0203 35° Northeast 296 341 7,000 -480 Descending Cleveland Center
21:11 42.8992 -78.9650 35° Northeast 291 335 7,000 -720 Level Cleveland Center
21:12 42.9628 -78.9036 35° Northeast 286 329 5,600 -900 Descending Cleveland Center
21:14 43.0333 -78.8167 42° Northeast 235 270 5,000 -600 Descending Buffalo TRACON
21:15 43.0667 -78.7333 61° Northeast 231 266 4,200 -720 Descending Buffalo TRACON
21:16 43.0333 -78.6500 119° Southeast 176 203 3,500 -1,080 Descending Buffalo TRACON
21:17 43.0000 -78.6500 180° South 135 155 2,100 -1,080 Descending Buffalo TRACON
21:18 42.9667 -78.6833 216° Southwest 138 159 1,500 -600 Descending Buffalo TRACON